sensor_id;sensor_type;location;lat;lon;timestamp;pressure;altitude;pressure_sealevel;temperature;humidity
46638;BME280;32365;46.938;7.390;2023-05-23T07:00:12;95287.47;;;17.43;82.05
46638;BME280;32365;46.938;7.390;2023-05-23T07:02:39;95289.78;;;17.49;82.05
46638;BME280;32365;46.938;7.390;2023-05-23T07:05:06;95297.69;;;17.39;83.23
46638;BME280;32365;46.938;7.390;2023-05-23T07:07:33;95292.38;;;17.15;84.35
46638;BME280;32365;46.938;7.390;2023-05-23T07:10:00;95300.50;;;17.13;83.58
46638;BME280;32365;46.938;7.390;2023-05-23T07:12:26;95301.09;;;17.00;84.14
46638;BME280;32365;46.938;7.390;2023-05-23T07:14:52;95302.38;;;17.07;84.24
46638;BME280;32365;46.938;7.390;2023-05-23T07:17:20;95303.38;;;17.12;84.85
46638;BME280;32365;46.938;7.390;2023-05-23T07:19:47;95303.28;;;17.27;84.41
46638;BME280;32365;46.938;7.390;2023-05-23T07:22:14;95306.50;;;17.14;83.05
46638;BME280;32365;46.938;7.390;2023-05-23T07:24:40;95303.66;;;17.10;82.43
46638;BME280;32365;46.938;7.390;2023-05-23T07:27:07;95308.13;;;17.04;83.40
46638;BME280;32365;46.938;7.390;2023-05-23T07:29:33;95318.59;;;16.99;83.04
46638;BME280;32365;46.938;7.390;2023-05-23T07:32:00;95305.44;;;17.20;82.62
46638;BME280;32365;46.938;7.390;2023-05-23T07:34:28;95304.41;;;17.16;83.27
46638;BME280;32365;46.938;7.390;2023-05-23T07:36:54;95306.59;;;16.88;85.08
46638;BME280;32365;46.938;7.390;2023-05-23T07:39:21;95307.00;;;16.55;85.84
46638;BME280;32365;46.938;7.390;2023-05-23T07:41:48;95310.16;;;16.42;87.45
46638;BME280;32365;46.938;7.390;2023-05-23T07:44:15;95299.44;;;16.54;87.55
46638;BME280;32365;46.938;7.390;2023-05-23T07:46:41;95303.84;;;16.64;87.95
46638;BME280;32365;46.938;7.390;2023-05-23T07:49:08;95298.06;;;16.67;86.61
46638;BME280;32365;46.938;7.390;2023-05-23T07:51:36;95295.06;;;16.99;86.21
46638;BME280;32365;46.938;7.390;2023-05-23T07:54:02;95293.81;;;16.86;87.41
46638;BME280;32365;46.938;7.390;2023-05-23T07:56:29;95303.84;;;16.64;89.69
46638;BME280;32365;46.938;7.390;2023-05-23T07:58:55;95308.91;;;16.24;92.82
46638;BME280;32365;46.938;7.390;2023-05-23T08:01:22;95298.00;;;16.06;95.22
46638;BME280;32365;46.938;7.390;2023-05-23T08:03:49;95294.34;;;15.92;97.71
46638;BME280;32365;46.938;7.390;2023-05-23T08:06:15;95290.44;;;15.68;98.02
46638;BME280;32365;46.938;7.390;2023-05-23T08:08:43;95288.34;;;15.70;99.24
46638;BME280;32365;46.938;7.390;2023-05-23T08:11:09;95294.84;;;15.78;100.00
46638;BME280;32365;46.938;7.390;2023-05-23T08:13:36;95290.44;;;15.63;100.00
46638;BME280;32365;46.938;7.390;2023-05-23T08:16:02;95293.56;;;15.55;100.00
46638;BME280;32365;46.938;7.390;2023-05-23T08:18:29;95291.72;;;15.55;99.58
46638;BME280;32365;46.938;7.390;2023-05-23T08:20:55;95289.91;;;15.61;100.00
46638;BME280;32365;46.938;7.390;2023-05-23T08:23:22;95289.13;;;15.61;99.00
46638;BME280;32365;46.938;7.390;2023-05-23T08:25:51;95289.09;;;15.76;98.99
46638;BME280;32365;46.938;7.390;2023-05-23T08:28:18;95291.22;;;15.90;100.00
46638;BME280;32365;46.938;7.390;2023-05-23T08:30:45;95290.19;;;15.85;100.00
46638;BME280;32365;46.938;7.390;2023-05-23T08:33:11;95288.84;;;15.83;100.00
46638;BME280;32365;46.938;7.390;2023-05-23T08:35:38;95289.66;;;15.68;100.00
46638;BME280;32365;46.938;7.390;2023-05-23T08:38:06;95294.63;;;15.69;100.00
46638;BME280;32365;46.938;7.390;2023-05-23T08:40:33;95292.25;;;15.73;100.00
46638;BME280;32365;46.938;7.390;2023-05-23T08:43:02;95294.63;;;15.90;100.00
46638;BME280;32365;46.938;7.390;2023-05-23T08:45:29;95290.97;;;15.86;100.00
46638;BME280;32365;46.938;7.390;2023-05-23T08:47:58;95300.34;;;16.13;100.00
46638;BME280;32365;46.938;7.390;2023-05-23T08:50:27;95293.19;;;16.44;100.00
46638;BME280;32365;46.938;7.390;2023-05-23T08:52:56;95293.88;;;16.71;100.00
46638;BME280;32365;46.938;7.390;2023-05-23T08:55:25;95292.28;;;16.75;98.80
46638;BME280;32365;46.938;7.390;2023-05-23T08:57:52;95287.94;;;16.50;99.51
46638;BME280;32365;46.938;7.390;2023-05-23T09:00:21;95291.63;;;16.38;98.25
46638;BME280;32365;46.938;7.390;2023-05-23T09:02:48;95283.22;;;16.57;97.39
46638;BME280;32365;46.938;7.390;2023-05-23T09:05:15;95287.53;;;16.82;97.30
46638;BME280;32365;46.938;7.390;2023-05-23T09:07:44;95289.22;;;17.13;94.49
46638;BME280;32365;46.938;7.390;2023-05-23T09:10:12;95282.47;;;17.46;94.77
46638;BME280;32365;46.938;7.390;2023-05-23T09:12:41;95284.38;;;17.35;91.39
46638;BME280;32365;46.938;7.390;2023-05-23T09:15:09;95288.75;;;17.45;93.41
46638;BME280;32365;46.938;7.390;2023-05-23T09:17:37;95281.84;;;17.60;91.96
46638;BME280;32365;46.938;7.390;2023-05-23T09:20:10;95279.16;;;17.70;92.61
46638;BME280;32365;46.938;7.390;2023-05-23T09:22:37;95272.16;;;18.19;93.88
46638;BME280;32365;46.938;7.390;2023-05-23T09:25:04;95269.16;;;18.31;90.05
46638;BME280;32365;46.938;7.390;2023-05-23T09:27:31;95272.56;;;18.75;90.90
46638;BME280;32365;46.938;7.390;2023-05-23T09:30:04;95278.34;;;18.96;89.31
46638;BME280;32365;46.938;7.390;2023-05-23T09:32:31;95275.03;;;18.66;86.82
46638;BME280;32365;46.938;7.390;2023-05-23T09:35:00;95277.00;;;19.18;85.15
46638;BME280;32365;46.938;7.390;2023-05-23T09:37:28;95275.06;;;18.85;81.37
46638;BME280;32365;46.938;7.390;2023-05-23T09:39:58;95288.34;;;18.70;83.91
46638;BME280;32365;46.938;7.390;2023-05-23T09:42:30;95273.59;;;18.55;83.04
46638;BME280;32365;46.938;7.390;2023-05-23T09:44:57;95275.38;;;18.35;83.57
46638;BME280;32365;46.938;7.390;2023-05-23T09:47:24;95278.72;;;18.41;82.72
46638;BME280;32365;46.938;7.390;2023-05-23T09:49:51;95276.72;;;18.33;82.50
46638;BME280;32365;46.938;7.390;2023-05-23T09:52:19;95285.59;;;18.80;82.83
46638;BME280;32365;46.938;7.390;2023-05-23T09:54:46;95287.31;;;18.90;84.64
46638;BME280;32365;46.938;7.390;2023-05-23T09:57:13;95282.28;;;19.51;82.34
46638;BME280;32365;46.938;7.390;2023-05-23T09:59:43;95287.25;;;19.52;82.70
46638;BME280;32365;46.938;7.390;2023-05-23T10:02:11;95284.13;;;19.50;77.60
46638;BME280;32365;46.938;7.390;2023-05-23T10:04:38;95282.97;;;19.57;80.19
46638;BME280;32365;46.938;7.390;2023-05-23T10:07:11;95279.41;;;19.14;79.66
46638;BME280;32365;46.938;7.390;2023-05-23T10:09:42;95279.38;;;19.33;82.15
46638;BME280;32365;46.938;7.390;2023-05-23T10:15:12;95272.75;;;19.03;81.11
46638;BME280;32365;46.938;7.390;2023-05-23T10:20:29;95268.72;;;19.44;76.75
46638;BME280;32365;46.938;7.390;2023-05-23T10:22:58;95267.34;;;19.98;77.40
46638;BME280;32365;46.938;7.390;2023-05-23T10:25:27;95261.47;;;19.88;75.78
46638;BME280;32365;46.938;7.390;2023-05-23T10:27:54;95262.69;;;19.76;76.05
46638;BME280;32365;46.938;7.390;2023-05-23T10:30:23;95264.75;;;20.26;73.57
46638;BME280;32365;46.938;7.390;2023-05-23T10:32:50;95265.47;;;20.97;70.22
46638;BME280;32365;46.938;7.390;2023-05-23T10:35:21;95261.81;;;21.06;70.76
46638;BME280;32365;46.938;7.390;2023-05-23T10:37:55;95262.34;;;21.77;72.91
46638;BME280;32365;46.938;7.390;2023-05-23T10:40:30;95255.47;;;22.07;67.12
46638;BME280;32365;46.938;7.390;2023-05-23T10:43:03;95264.13;;;21.99;63.53
46638;BME280;32365;46.938;7.390;2023-05-23T10:45:39;95253.91;;;21.66;67.22
46638;BME280;32365;46.938;7.390;2023-05-23T10:48:19;95254.44;;;22.17;65.81
46638;BME280;32365;46.938;7.390;2023-05-23T10:51:00;95247.34;;;22.35;63.74
46638;BME280;32365;46.938;7.390;2023-05-23T10:53:28;95256.16;;;22.13;67.96
46638;BME280;32365;46.938;7.390;2023-05-23T10:55:56;95260.09;;;22.02;64.28
46638;BME280;32365;46.938;7.390;2023-05-23T10:58:23;95261.91;;;22.24;63.92
46638;BME280;32365;46.938;7.390;2023-05-23T11:00:51;95251.16;;;22.11;63.72
46638;BME280;32365;46.938;7.390;2023-05-23T11:03:18;95261.38;;;22.44;61.34
46638;BME280;32365;46.938;7.390;2023-05-23T11:05:47;95259.69;;;22.49;62.38
46638;BME280;32365;46.938;7.390;2023-05-23T11:08:19;95249.91;;;22.49;61.72
46638;BME280;32365;46.938;7.390;2023-05-23T11:10:53;95243.91;;;22.84;59.42
46638;BME280;32365;46.938;7.390;2023-05-23T11:13:21;95240.31;;;22.62;58.99
46638;BME280;32365;46.938;7.390;2023-05-23T11:15:48;95242.09;;;22.35;62.88
46638;BME280;32365;46.938;7.390;2023-05-23T11:18:23;95248.56;;;22.87;60.84
46638;BME280;32365;46.938;7.390;2023-05-23T11:20:52;95241.53;;;22.56;59.88
46638;BME280;32365;46.938;7.390;2023-05-23T11:23:19;95241.72;;;23.47;57.86
46638;BME280;32365;46.938;7.390;2023-05-23T11:25:48;95245.56;;;23.76;57.34
46638;BME280;32365;46.938;7.390;2023-05-23T11:28:15;95247.63;;;23.18;60.90
46638;BME280;32365;46.938;7.390;2023-05-23T11:30:46;95242.19;;;23.49;60.32
46638;BME280;32365;46.938;7.390;2023-05-23T11:33:14;95238.31;;;22.68;62.85
46638;BME280;32365;46.938;7.390;2023-05-23T11:35:42;95242.16;;;22.62;64.91
46638;BME280;32365;46.938;7.390;2023-05-23T11:38:10;95236.16;;;22.79;61.63
46638;BME280;32365;46.938;7.390;2023-05-23T11:40:37;95238.00;;;23.04;63.83
46638;BME280;32365;46.938;7.390;2023-05-23T11:43:06;95238.00;;;22.87;64.69
46638;BME280;32365;46.938;7.390;2023-05-23T11:45:33;95228.38;;;23.44;62.42
46638;BME280;32365;46.938;7.390;2023-05-23T11:48:08;95228.69;;;23.16;64.61
46638;BME280;32365;46.938;7.390;2023-05-23T11:50:44;95225.19;;;24.97;58.43
46638;BME280;32365;46.938;7.390;2023-05-23T11:53:11;95219.72;;;25.02;57.01
46638;BME280;32365;46.938;7.390;2023-05-23T11:55:39;95232.19;;;24.80;57.58
46638;BME280;32365;46.938;7.390;2023-05-23T11:58:06;95228.38;;;23.35;61.07
46638;BME280;32365;46.938;7.390;2023-05-23T12:00:32;95223.56;;;24.02;60.81
46638;BME280;32365;46.938;7.390;2023-05-23T12:03:05;95225.63;;;24.56;56.64
46638;BME280;32365;46.938;7.390;2023-05-23T12:05:33;95228.97;;;23.58;62.01
46638;BME280;32365;46.938;7.390;2023-05-23T12:08:00;95225.53;;;25.16;56.43
46638;BME280;32365;46.938;7.390;2023-05-23T12:10:27;95223.69;;;24.66;55.53
46638;BME280;32365;46.938;7.390;2023-05-23T12:12:53;95223.44;;;23.90;58.52
46638;BME280;32365;46.938;7.390;2023-05-23T12:15:24;95220.78;;;22.98;63.15
46638;BME280;32365;46.938;7.390;2023-05-23T12:17:52;95220.16;;;24.32;59.19
46638;BME280;32365;46.938;7.390;2023-05-23T12:20:19;95210.09;;;24.76;54.39
46638;BME280;32365;46.938;7.390;2023-05-23T12:22:47;95218.19;;;23.72;55.79
46638;BME280;32365;46.938;7.390;2023-05-23T12:25:14;95214.25;;;24.56;56.86
46638;BME280;32365;46.938;7.390;2023-05-23T12:27:40;95215.00;;;26.00;51.37
46638;BME280;32365;46.938;7.390;2023-05-23T12:30:09;95219.84;;;24.84;57.35
46638;BME280;32365;46.938;7.390;2023-05-23T12:32:38;95214.13;;;23.83;56.36
46638;BME280;32365;46.938;7.390;2023-05-23T12:35:06;95216.47;;;25.17;52.98
46638;BME280;32365;46.938;7.390;2023-05-23T12:37:32;95208.47;;;25.72;54.91
46638;BME280;32365;46.938;7.390;2023-05-23T12:40:10;95213.41;;;26.20;50.56
46638;BME280;32365;46.938;7.390;2023-05-23T12:42:48;95206.50;;;25.35;50.43
46638;BME280;32365;46.938;7.390;2023-05-23T12:45:15;95205.44;;;26.20;50.97
46638;BME280;32365;46.938;7.390;2023-05-23T12:47:42;95213.25;;;26.66;50.19
46638;BME280;32365;46.938;7.390;2023-05-23T12:50:09;95211.59;;;25.99;45.71
46638;BME280;32365;46.938;7.390;2023-05-23T12:52:36;95206.78;;;25.55;49.87
46638;BME280;32365;46.938;7.390;2023-05-23T12:55:05;95197.94;;;27.16;45.40
46638;BME280;32365;46.938;7.390;2023-05-23T12:57:34;95209.72;;;26.00;49.22
46638;BME280;32365;46.938;7.390;2023-05-23T13:00:00;95203.34;;;26.13;46.81
46638;BME280;32365;46.938;7.390;2023-05-23T13:02:27;95206.75;;;25.89;47.42
46638;BME280;32365;46.938;7.390;2023-05-23T13:04:53;95200.63;;;25.76;49.22
46638;BME280;32365;46.938;7.390;2023-05-23T13:07:21;95202.56;;;26.12;51.97
46638;BME280;32365;46.938;7.390;2023-05-23T13:09:47;95197.97;;;27.60;45.03
46638;BME280;32365;46.938;7.390;2023-05-23T13:12:14;95189.91;;;27.89;41.19
46638;BME280;32365;46.938;7.390;2023-05-23T13:14:42;95188.19;;;26.92;43.49
46638;BME280;32365;46.938;7.390;2023-05-23T13:17:08;95199.84;;;26.74;45.49
46638;BME280;32365;46.938;7.390;2023-05-23T13:19:35;95189.81;;;28.17;44.24
46638;BME280;32365;46.938;7.390;2023-05-23T13:22:01;95175.19;;;29.22;39.86
46638;BME280;32365;46.938;7.390;2023-05-23T13:24:28;95182.63;;;29.32;38.21
46638;BME280;32365;46.938;7.390;2023-05-23T13:26:55;95169.97;;;29.06;39.25
46638;BME280;32365;46.938;7.390;2023-05-23T13:29:21;95164.97;;;29.24;40.24
46638;BME280;32365;46.938;7.390;2023-05-23T13:31:49;95165.28;;;27.15;42.17
46638;BME280;32365;46.938;7.390;2023-05-23T13:34:17;95167.22;;;26.62;42.30
46638;BME280;32365;46.938;7.390;2023-05-23T13:36:43;95163.75;;;27.59;41.66
46638;BME280;32365;46.938;7.390;2023-05-23T13:39:10;95165.53;;;27.10;43.48
46638;BME280;32365;46.938;7.390;2023-05-23T13:41:36;95167.34;;;24.86;46.70
46638;BME280;32365;46.938;7.390;2023-05-23T13:44:02;95165.00;;;23.35;49.52
46638;BME280;32365;46.938;7.390;2023-05-23T13:46:29;95162.03;;;24.23;50.01
46638;BME280;32365;46.938;7.390;2023-05-23T13:48:57;95155.69;;;25.92;45.48
46638;BME280;32365;46.938;7.390;2023-05-23T13:51:23;95149.56;;;26.53;40.71
46638;BME280;32365;46.938;7.390;2023-05-23T13:53:50;95147.09;;;26.61;43.92
46638;BME280;32365;46.938;7.390;2023-05-23T13:56:17;95146.50;;;26.26;45.77
46638;BME280;32365;46.938;7.390;2023-05-23T13:58:43;95142.97;;;25.14;47.06
46638;BME280;32365;46.938;7.390;2023-05-23T14:01:10;95135.78;;;24.60;49.35
46638;BME280;32365;46.938;7.390;2023-05-23T14:03:37;95136.25;;;26.00;50.28
46638;BME280;32365;46.938;7.390;2023-05-23T14:06:05;95126.34;;;27.52;44.02
46638;BME280;32365;46.938;7.390;2023-05-23T14:08:31;95128.91;;;27.03;43.29
46638;BME280;32365;46.938;7.390;2023-05-23T14:10:58;95127.66;;;23.93;50.14
46638;BME280;32365;46.938;7.390;2023-05-23T14:13:25;95124.09;;;23.50;53.20
46638;BME280;32365;46.938;7.390;2023-05-23T14:15:51;95125.66;;;23.81;51.45
46638;BME280;32365;46.938;7.390;2023-05-23T14:18:18;95127.72;;;25.45;46.67
46638;BME280;32365;46.938;7.390;2023-05-23T14:20:45;95123.72;;;26.38;45.90
46638;BME280;32365;46.938;7.390;2023-05-23T14:23:12;95117.19;;;27.04;45.33
46638;BME280;32365;46.938;7.390;2023-05-23T14:25:39;95119.50;;;27.50;43.76
46638;BME280;32365;46.938;7.390;2023-05-23T14:28:05;95120.09;;;27.60;43.71
46638;BME280;32365;46.938;7.390;2023-05-23T14:30:32;95136.34;;;25.66;45.17
46638;BME280;32365;46.938;7.390;2023-05-23T14:32:58;95133.34;;;24.34;50.24
46638;BME280;32365;46.938;7.390;2023-05-23T14:35:25;95136.13;;;24.07;51.23
46638;BME280;32365;46.938;7.390;2023-05-23T14:37:53;95139.22;;;24.82;50.77
46638;BME280;32365;46.938;7.390;2023-05-23T14:40:21;95137.56;;;25.81;49.79
46638;BME280;32365;46.938;7.390;2023-05-23T14:42:48;95134.53;;;27.14;45.71
46638;BME280;32365;46.938;7.390;2023-05-23T14:45:14;95139.25;;;24.94;49.50
46638;BME280;32365;46.938;7.390;2023-05-23T14:47:41;95131.78;;;24.33;49.18
46638;BME280;32365;46.938;7.390;2023-05-23T14:50:08;95133.47;;;23.39;53.49
46638;BME280;32365;46.938;7.390;2023-05-23T14:52:34;95126.31;;;23.39;56.13
46638;BME280;32365;46.938;7.390;2023-05-23T14:55:01;95124.03;;;23.59;52.07
46638;BME280;32365;46.938;7.390;2023-05-23T14:57:29;95126.59;;;23.46;52.62
46638;BME280;32365;46.938;7.390;2023-05-23T14:59:55;95138.81;;;22.42;54.96
46638;BME280;32365;46.938;7.390;2023-05-23T15:02:22;95134.47;;;21.79;57.69
46638;BME280;32365;46.938;7.390;2023-05-23T15:04:48;95134.22;;;22.07;56.23
46638;BME280;32365;46.938;7.390;2023-05-23T15:07:15;95131.44;;;22.12;55.00
46638;BME280;32365;46.938;7.390;2023-05-23T15:09:42;95135.88;;;22.70;53.48
46638;BME280;32365;46.938;7.390;2023-05-23T15:12:09;95132.69;;;23.29;52.08
46638;BME280;32365;46.938;7.390;2023-05-23T15:14:36;95136.81;;;24.47;50.13
46638;BME280;32365;46.938;7.390;2023-05-23T15:17:03;95137.09;;;24.03;51.78
46638;BME280;32365;46.938;7.390;2023-05-23T15:19:33;95140.38;;;23.61;51.24
46638;BME280;32365;46.938;7.390;2023-05-23T15:22:00;95134.78;;;22.71;52.69
46638;BME280;32365;46.938;7.390;2023-05-23T15:24:26;95131.22;;;22.67;53.10
46638;BME280;32365;46.938;7.390;2023-05-23T15:26:53;95139.03;;;22.14;53.92
46638;BME280;32365;46.938;7.390;2023-05-23T15:29:19;95129.91;;;22.11;55.43
46638;BME280;32365;46.938;7.390;2023-05-23T15:31:49;95134.88;;;21.64;54.68
46638;BME280;32365;46.938;7.390;2023-05-23T15:34:15;95140.59;;;21.34;56.94
46638;BME280;32365;46.938;7.390;2023-05-23T15:36:42;95136.69;;;22.04;58.12
46638;BME280;32365;46.938;7.390;2023-05-23T15:39:09;95143.88;;;22.12;53.98
46638;BME280;32365;46.938;7.390;2023-05-23T15:41:35;95155.06;;;21.46;55.75
46638;BME280;32365;46.938;7.390;2023-05-23T15:44:02;95153.50;;;20.90;58.74
46638;BME280;32365;46.938;7.390;2023-05-23T15:46:28;95149.72;;;20.83;58.90
46638;BME280;32365;46.938;7.390;2023-05-23T15:48:56;95142.63;;;21.06;59.73
46638;BME280;32365;46.938;7.390;2023-05-23T15:51:23;95143.81;;;21.00;60.38
46638;BME280;32365;46.938;7.390;2023-05-23T15:53:50;95142.28;;;20.62;60.60
46638;BME280;32365;46.938;7.390;2023-05-23T15:56:16;95148.03;;;20.64;60.33
46638;BME280;32365;46.938;7.390;2023-05-23T15:58:43;95151.63;;;20.68;61.79
46638;BME280;32365;46.938;7.390;2023-05-23T16:01:09;95141.78;;;20.60;60.24
46638;BME280;32365;46.938;7.390;2023-05-23T16:03:36;95140.19;;;20.73;60.09
46638;BME280;32365;46.938;7.390;2023-05-23T16:06:04;95144.09;;;20.75;60.38
46638;BME280;32365;46.938;7.390;2023-05-23T16:08:31;95143.38;;;20.84;60.20
46638;BME280;32365;46.938;7.390;2023-05-23T16:10:57;95151.59;;;20.82;60.50
46638;BME280;32365;46.938;7.390;2023-05-23T16:13:23;95143.28;;;21.12;57.84
46638;BME280;32365;46.938;7.390;2023-05-23T16:15:50;95144.78;;;20.81;57.91
46638;BME280;32365;46.938;7.390;2023-05-23T16:18:17;95138.16;;;20.70;58.89
46638;BME280;32365;46.938;7.390;2023-05-23T16:20:44;95137.34;;;20.83;59.48
46638;BME280;32365;46.938;7.390;2023-05-23T16:23:11;95141.56;;;21.38;56.56
46638;BME280;32365;46.938;7.390;2023-05-23T16:25:38;95138.09;;;21.29;56.68
46638;BME280;32365;46.938;7.390;2023-05-23T16:28:04;95133.66;;;21.07;57.10
46638;BME280;32365;46.938;7.390;2023-05-23T16:30:31;95130.28;;;21.15;57.19
46638;BME280;32365;46.938;7.390;2023-05-23T16:32:58;95127.28;;;21.62;55.89
46638;BME280;32365;46.938;7.390;2023-05-23T16:35:24;95132.59;;;21.80;54.94
46638;BME280;32365;46.938;7.390;2023-05-23T16:37:50;95131.69;;;21.84;55.49
46638;BME280;32365;46.938;7.390;2023-05-23T16:40:18;95133.47;;;21.35;54.54
46638;BME280;32365;46.938;7.390;2023-05-23T16:42:45;95134.84;;;21.32;57.14
46638;BME280;32365;46.938;7.390;2023-05-23T16:45:11;95144.50;;;21.14;55.33
46638;BME280;32365;46.938;7.390;2023-05-23T16:47:38;95144.28;;;21.02;55.10
46638;BME280;32365;46.938;7.390;2023-05-23T16:50:05;95135.72;;;21.19;55.42
46638;BME280;32365;46.938;7.390;2023-05-23T16:52:32;95141.13;;;20.91;54.97
46638;BME280;32365;46.938;7.390;2023-05-23T16:54:59;95137.28;;;20.74;55.68
46638;BME280;32365;46.938;7.390;2023-05-23T16:57:26;95137.91;;;21.26;53.63
46638;BME280;32365;46.938;7.390;2023-05-23T16:59:53;95134.69;;;21.29;53.31
46638;BME280;32365;46.938;7.390;2023-05-23T17:02:19;95138.31;;;21.42;54.30
46638;BME280;32365;46.938;7.390;2023-05-23T17:04:46;95143.44;;;21.15;53.85
46638;BME280;32365;46.938;7.390;2023-05-23T17:07:13;95143.69;;;21.05;54.72
46638;BME280;32365;46.938;7.390;2023-05-23T17:09:39;95141.78;;;21.19;55.09
46638;BME280;32365;46.938;7.390;2023-05-23T17:12:06;95143.03;;;21.53;56.33
46638;BME280;32365;46.938;7.390;2023-05-23T17:14:34;95154.88;;;20.88;53.67
46638;BME280;32365;46.938;7.390;2023-05-23T17:17:01;95150.25;;;20.71;54.03
46638;BME280;32365;46.938;7.390;2023-05-23T17:19:29;95153.97;;;20.92;52.92
46638;BME280;32365;46.938;7.390;2023-05-23T17:21:55;95153.16;;;20.69;54.85
46638;BME280;32365;46.938;7.390;2023-05-23T17:24:23;95157.03;;;20.35;57.24
46638;BME280;32365;46.938;7.390;2023-05-23T17:26:49;95157.50;;;20.51;56.36
46638;BME280;32365;46.938;7.390;2023-05-23T17:29:15;95155.47;;;20.34;57.11
46638;BME280;32365;46.938;7.390;2023-05-23T17:31:45;95167.59;;;20.21;58.87
46638;BME280;32365;46.938;7.390;2023-05-23T17:34:12;95165.84;;;19.89;60.79
46638;BME280;32365;46.938;7.390;2023-05-23T17:36:38;95167.16;;;19.58;61.39
46638;BME280;32365;46.938;7.390;2023-05-23T17:39:05;95164.63;;;19.53;61.86
46638;BME280;32365;46.938;7.390;2023-05-23T17:41:31;95163.88;;;19.66;61.11
46638;BME280;32365;46.938;7.390;2023-05-23T17:43:58;95171.75;;;19.66;61.52
46638;BME280;32365;46.938;7.390;2023-05-23T17:46:25;95172.22;;;19.54;61.84
46638;BME280;32365;46.938;7.390;2023-05-23T17:48:53;95172.78;;;19.51;62.86
46638;BME280;32365;46.938;7.390;2023-05-23T17:51:20;95173.97;;;19.59;62.66
46638;BME280;32365;46.938;7.390;2023-05-23T17:53:47;95183.88;;;19.48;62.49
46638;BME280;32365;46.938;7.390;2023-05-23T17:56:18;95180.16;;;19.49;62.11
46638;BME280;32365;46.938;7.390;2023-05-23T17:58:44;95183.09;;;19.62;63.79
46638;BME280;32365;46.938;7.390;2023-05-23T18:01:11;95181.00;;;19.78;61.30
46638;BME280;32365;46.938;7.390;2023-05-23T18:03:37;95185.78;;;19.43;61.15
46638;BME280;32365;46.938;7.390;2023-05-23T18:06:05;95187.03;;;19.31;61.63
46638;BME280;32365;46.938;7.390;2023-05-23T18:08:32;95174.69;;;19.18;63.63
46638;BME280;32365;46.938;7.390;2023-05-23T18:10:58;95175.88;;;19.06;63.03
46638;BME280;32365;46.938;7.390;2023-05-23T18:13:25;95181.78;;;18.98;62.78
46638;BME280;32365;46.938;7.390;2023-05-23T18:15:51;95181.91;;;19.07;62.59
46638;BME280;32365;46.938;7.390;2023-05-23T18:18:18;95183.34;;;18.99;64.89
46638;BME280;32365;46.938;7.390;2023-05-23T18:20:44;95182.47;;;19.04;65.53
46638;BME280;32365;46.938;7.390;2023-05-23T18:23:12;95187.16;;;18.88;65.09
46638;BME280;32365;46.938;7.390;2023-05-23T18:25:39;95190.84;;;18.68;65.86
46638;BME280;32365;46.938;7.390;2023-05-23T18:28:05;95182.78;;;18.64;65.95
46638;BME280;32365;46.938;7.390;2023-05-23T18:30:31;95182.53;;;18.41;67.47
46638;BME280;32365;46.938;7.390;2023-05-23T18:32:58;95181.69;;;18.46;66.83
46638;BME280;32365;46.938;7.390;2023-05-23T18:35:24;95185.09;;;18.46;67.38
46638;BME280;32365;46.938;7.390;2023-05-23T18:37:52;95179.94;;;18.41;66.58
46638;BME280;32365;46.938;7.390;2023-05-23T18:40:19;95187.84;;;18.36;67.34
46638;BME280;32365;46.938;7.390;2023-05-23T18:42:47;95190.94;;;18.63;67.12
46638;BME280;32365;46.938;7.390;2023-05-23T18:45:14;95183.94;;;18.34;67.25
46638;BME280;32365;46.938;7.390;2023-05-23T18:47:41;95183.59;;;18.21;67.72
46638;BME280;32365;46.938;7.390;2023-05-23T18:50:08;95184.84;;;18.24;67.64
46638;BME280;32365;46.938;7.390;2023-05-23T18:52:35;95189.31;;;17.99;68.34
46638;BME280;32365;46.938;7.390;2023-05-23T18:55:03;95189.88;;;17.96;69.20
46638;BME280;32365;46.938;7.390;2023-05-23T18:57:30;95189.88;;;17.96;69.16
46638;BME280;32365;46.938;7.390;2023-05-23T18:59:57;95186.19;;;17.73;70.20
46638;BME280;32365;46.938;7.390;2023-05-23T19:02:23;95196.09;;;17.76;71.35
46638;BME280;32365;46.938;7.390;2023-05-23T19:04:50;95200.00;;;17.78;71.36
46638;BME280;32365;46.938;7.390;2023-05-23T19:07:17;95207.66;;;17.69;72.14
46638;BME280;32365;46.938;7.390;2023-05-23T19:09:43;95201.38;;;17.70;72.25
46638;BME280;32365;46.938;7.390;2023-05-23T19:12:11;95209.06;;;17.62;71.76
46638;BME280;32365;46.938;7.390;2023-05-23T19:14:38;95212.06;;;17.45;72.76
46638;BME280;32365;46.938;7.390;2023-05-23T19:17:05;95221.78;;;17.44;72.39
46638;BME280;32365;46.938;7.390;2023-05-23T19:19:32;95230.47;;;17.34;71.52
46638;BME280;32365;46.938;7.390;2023-05-23T19:21:59;95236.16;;;17.12;72.05
46638;BME280;32365;46.938;7.390;2023-05-23T19:24:25;95234.03;;;17.14;71.38
46638;BME280;32365;46.938;7.390;2023-05-23T19:26:52;95241.69;;;17.05;71.76
46638;BME280;32365;46.938;7.390;2023-05-23T19:29:20;95237.34;;;16.85;70.79
46638;BME280;32365;46.938;7.390;2023-05-23T19:31:48;95247.50;;;16.92;70.30
46638;BME280;32365;46.938;7.390;2023-05-23T19:34:14;95251.47;;;16.84;70.66
46638;BME280;32365;46.938;7.390;2023-05-23T19:36:41;95254.66;;;16.76;70.66
46638;BME280;32365;46.938;7.390;2023-05-23T19:39:08;95251.97;;;16.86;70.35
46638;BME280;32365;46.938;7.390;2023-05-23T19:41:36;95263.59;;;16.65;71.45
46638;BME280;32365;46.938;7.390;2023-05-23T19:44:02;95265.91;;;16.71;70.64
46638;BME280;32365;46.938;7.390;2023-05-23T19:46:29;95259.06;;;16.81;69.91
46638;BME280;32365;46.938;7.390;2023-05-23T19:48:57;95260.00;;;16.50;70.81
46638;BME280;32365;46.938;7.390;2023-05-23T19:51:24;95263.09;;;16.57;70.57
46638;BME280;32365;46.938;7.390;2023-05-23T19:53:50;95271.00;;;16.37;71.08
46638;BME280;32365;46.938;7.390;2023-05-23T19:56:19;95269.44;;;16.41;72.00
46638;BME280;32365;46.938;7.390;2023-05-23T19:58:46;95277.59;;;16.19;72.36
46638;BME280;32365;46.938;7.390;2023-05-23T20:01:12;95264.03;;;16.06;72.14
46638;BME280;32365;46.938;7.390;2023-05-23T20:03:39;95270.56;;;16.09;72.78
46638;BME280;32365;46.938;7.390;2023-05-23T20:06:06;95273.97;;;16.09;71.76